York, Maine
Current Conditions -  °F | °C
As of 7:58 AM on Saturday 25 Oct 2014 (Local Time) from KPSM Reporting Station
Broken Clouds Broken Clouds  
Wind Chill: 44°   Ceiling: 25000
Heat Index: 47°   Visibility: 10mi
Dew Point: 38°   Wind: 7mph
Humidity: 70%   Direction: 260°W
Pressure: 29.71"   Gusts: NA
Location:  43.15°N, 70.65°W
Report Text: KPSM 251158Z 26006KT 10SM SCT090 BKN250 09/03 A2971 RMK AO2A SLP064 70002 T00850034 10085 20060 53000
Loading
Personal Weather Stations






























Interactive Weather Map
Tropical Storm Tracking
New forecast layout! Learn more

10-Day Weather Forecast

Advertisements
Track Severe Weather on mobile